createdAt,value
2022-11-03T11:44:19.056Z,44.16
2022-11-03T11:45:19.170Z,49.08
2022-11-03T11:46:19.422Z,44.11
2022-11-03T11:47:18.936Z,52.04
2022-11-03T11:48:21.335Z,54.31
2022-11-03T11:49:18.847Z,59.88
2022-11-03T11:59:33.472Z,48.86
2022-11-03T12:02:34.594Z,57.85
2022-11-03T12:03:34.994Z,56.09
2022-11-03T12:04:33.340Z,51.68
2022-11-03T12:08:03.896Z,50.52
2022-11-03T12:09:06.598Z,42.96
2022-11-03T12:10:00.768Z,44.55
2022-11-03T12:11:02.193Z,48.68
2022-11-03T12:19:51.965Z,50.10
2022-11-03T12:21:21.316Z,41.00
2022-11-03T12:22:26.344Z,40.02
2022-11-03T12:23:19.044Z,38.59
2022-11-03T12:24:04.559Z,41.96
2022-11-03T12:24:53.798Z,39.40
2022-11-03T12:25:42.063Z,48.70
2022-11-03T12:26:47.492Z,41.24
2022-11-03T12:27:52.042Z,52.36
2022-11-03T12:28:34.739Z,46.70
2022-11-03T12:52:49.339Z,37.44
2022-11-03T12:53:49.473Z,39.52
2022-11-03T12:54:49.472Z,38.82
2022-11-03T12:55:49.585Z,39.60
2022-11-03T12:56:49.312Z,41.41
2022-11-03T12:57:49.979Z,40.94
2022-11-03T12:58:49.250Z,40.10
2022-11-03T12:59:49.383Z,63.22
2022-11-03T13:00:54.929Z,95.84
2022-11-03T13:01:50.699Z,90.18
2022-11-03T13:02:49.528Z,47.54
2022-11-03T13:03:49.492Z,90.99
2022-11-03T13:04:49.227Z,100.99
2022-11-03T13:05:49.541Z,101.62
2022-11-03T13:06:51.234Z,101.76
2022-11-03T13:07:49.435Z,101.89
2022-11-03T13:08:52.229Z,100.69
2022-11-03T13:09:50.431Z,95.78
2022-11-03T13:10:49.175Z,100.08
2022-11-03T13:11:49.400Z,99.10
2022-11-03T13:12:49.419Z,98.98
2022-11-03T13:13:49.377Z,98.94
2022-11-03T13:14:49.303Z,96.29
2022-11-03T13:15:49.132Z,98.68
2022-11-03T13:16:49.537Z,98.78
2022-11-03T13:18:12.077Z,98.66
2022-11-03T13:18:50.019Z,96.17
2022-11-03T13:19:54.362Z,94.50
2022-11-03T13:20:54.020Z,94.51
2022-11-03T13:21:49.011Z,95.59
2022-11-03T13:22:49.020Z,98.47
2022-11-03T13:23:49.136Z,98.42
2022-11-03T13:24:49.650Z,96.79
2022-11-03T13:25:49.089Z,98.11
2022-11-03T13:26:49.011Z,98.03
2022-11-03T13:27:49.097Z,97.95
2022-11-03T13:28:49.158Z,98.22
2022-11-03T13:29:49.068Z,97.80
2022-11-03T13:30:48.939Z,96.47
2022-11-03T13:31:49.211Z,98.31
2022-11-03T13:32:48.929Z,98.50
2022-11-03T13:33:48.817Z,98.55
2022-11-03T13:34:48.986Z,98.67
2022-11-03T13:35:49.040Z,99.04
2022-11-03T13:36:49.024Z,99.05
2022-11-03T13:37:48.869Z,99.20
2022-11-03T13:38:48.794Z,100.60
2022-11-03T13:39:48.808Z,100.50
2022-11-03T13:40:57.219Z,100.35
2022-11-03T13:41:49.887Z,97.54
2022-11-03T13:42:48.753Z,96.91
2022-11-03T13:43:48.739Z,96.95
2022-11-03T13:44:48.735Z,96.92
2022-11-03T13:45:48.937Z,94.51
2022-11-03T13:46:48.748Z,94.52
2022-11-03T13:48:23.162Z,69.52
2022-11-03T13:49:42.336Z,62.58
2022-11-03T13:50:13.086Z,94.48
2022-11-03T13:50:49.677Z,96.28
2022-11-03T13:51:48.583Z,97.88
2022-11-03T13:52:48.808Z,98.38
2022-11-03T13:55:50.417Z,84.41
2022-11-03T13:59:49.743Z,84.91
2022-11-03T14:00:49.322Z,84.93
2022-11-03T14:04:49.896Z,83.61
2022-11-03T14:05:48.622Z,83.64
2022-11-03T14:06:48.432Z,83.69
2022-11-03T14:07:48.513Z,83.75
2022-11-03T14:08:48.437Z,84.13
2022-11-03T14:09:48.732Z,83.84
2022-11-03T14:10:48.502Z,83.85
2022-11-03T14:11:48.504Z,83.84
2022-11-03T14:12:48.394Z,83.23
2022-11-03T14:13:48.514Z,82.87
2022-11-03T14:14:48.390Z,82.88
2022-11-03T14:15:48.328Z,82.87
2022-11-03T14:16:48.450Z,83.54
2022-11-03T14:17:48.380Z,84.36
2022-11-03T14:18:48.544Z,84.34
2022-11-03T14:19:52.427Z,84.13
2022-11-03T14:20:48.516Z,85.78
2022-11-03T14:21:49.340Z,83.35
2022-11-03T14:22:48.335Z,83.35
2022-11-03T14:23:49.277Z,83.35
2022-11-03T14:24:48.300Z,80.50
2022-11-03T14:26:00.427Z,84.88
2022-11-03T14:26:49.464Z,84.97
2022-11-03T14:27:50.856Z,85.15
2022-11-03T14:28:48.896Z,88.34
2022-11-03T14:29:48.691Z,91.62
2022-11-03T14:30:48.191Z,92.23
2022-11-03T14:31:48.299Z,87.15
2022-11-03T14:32:48.180Z,81.39
2022-11-03T14:33:48.709Z,81.37
2022-11-03T14:34:48.816Z,81.20
2022-11-03T14:35:48.192Z,81.14
2022-11-03T14:36:48.236Z,68.39
2022-11-03T14:37:48.506Z,83.15
2022-11-03T14:38:50.125Z,85.81
2022-11-03T14:39:50.289Z,85.82
2022-11-03T14:40:48.097Z,85.81
2022-11-03T14:41:48.150Z,85.81
2022-11-03T14:42:48.433Z,63.71
2022-11-03T14:43:48.257Z,44.25
2022-11-03T14:44:48.127Z,43.07
2022-11-03T14:45:48.209Z,35.15
2022-11-03T14:46:48.054Z,34.33
2022-11-03T14:47:48.063Z,34.38
2022-11-03T14:48:48.014Z,34.32
2022-11-03T14:49:48.104Z,35.38
2022-11-03T14:50:48.026Z,36.72
2022-11-03T14:51:48.302Z,43.63
2022-11-03T14:52:48.220Z,48.31
2022-11-03T14:53:47.932Z,48.67
2022-11-03T14:54:48.158Z,45.88
2022-11-03T14:55:47.973Z,36.22
2022-11-03T14:56:48.026Z,34.87
